Time;durP1;ratioP1;P1;durP2;ratioP2;P2;SDS_P1;SDS_P2;PMS_P1;PMS_P2;Temp;Humidity;BMP_temperature;BMP_pressure;BME280_temperature;BME280_humidity;BME280_pressure;Samples;Min_cycle;Max_cycle;Signal;HPM_P1;HPM_P2
2022/09/05 00:01:24;;;;;;;;;;;;;;;26.14;68.23;101008.94;2053671;28;20378;-74
2022/09/05 00:03:12;;;;;;;;;;;;;;;26.14;68.53;100999.94;2052000;28;20009;-74
2022/09/05 00:04:37;;;;;;;;;;;;;;;26.13;68.09;100998.19;2064326;28;20440;-74
2022/09/05 00:06:05;;;;;;;;;;;;;;;26.12;68.52;101009.97;2060229;28;19926;-74
2022/09/05 00:07:30;;;;;;;;;;;;;;;26.08;68.54;101003.81;2056273;28;19926;-75
2022/09/05 00:08:57;;;;;;;;;;;;;;;26.08;68.70;101003.81;2061461;28;20008;-74
2022/09/05 00:10:21;;;;;;;;;;;;;;;26.08;68.40;101006.50;2061936;28;19922;-74
2022/09/05 00:11:48;;;;;;;;;;;;;;;26.09;68.16;101010.97;2046552;28;19962;-74
2022/09/05 00:13:11;;;;;;;;;;;;;;;26.07;68.68;101018.28;2044271;29;19922;-74
2022/09/05 00:14:41;;;;;;;;;;;;;;;26.06;68.26;101016.53;2042641;29;20402;-74
2022/09/05 00:16:16;;;;;;;;;;;;;;;26.04;68.73;101017.56;2060535;28;20020;-74
2022/09/05 00:17:40;;;;;;;;;;;;;;;26.01;68.84;101007.72;2062555;28;20036;-74
2022/09/05 00:19:09;;;;;;;;;;;;;;;26.01;68.70;101012.25;2056288;28;19929;-74
2022/09/05 00:20:38;;;;;;;;;;;;;;;26.00;68.88;101010.50;2060040;28;19953;-75
2022/09/05 00:22:15;;;;;;;;;;;;;;;25.98;68.74;101007.88;2062702;28;19922;-74
2022/09/05 00:23:46;;;;;;;;;;;;;;;25.96;68.67;101007.06;2047768;29;19973;-74
2022/09/05 00:25:26;;;;;;;;;;;;;;;25.94;68.49;100998.13;2056614;28;20024;-74
2022/09/05 00:26:53;;;;;;;;;;;;;;;25.94;68.46;101006.25;2057536;28;19977;-74
2022/09/05 00:28:19;;;;;;;;;;;;;;;25.93;68.53;101012.59;2063426;28;20412;-74
2022/09/05 00:29:52;;;;;;;;;;;;;;;25.91;68.54;101009.09;2046357;29;19922;-74
2022/09/05 00:31:25;;;;;;;;;;;;;;;25.92;68.45;101001.88;2058673;28;19925;-75
2022/09/05 00:32:57;;;;;;;;;;;;;;;25.91;68.15;100995.56;2054820;28;19922;-74
2022/09/05 00:34:27;;;;;;;;;;;;;;;25.92;67.90;101002.75;2055083;28;19948;-74
2022/09/05 00:35:59;;;;;;;;;;;;;;;25.91;68.09;101000.97;2054686;28;19922;-74
2022/09/05 00:37:30;;;;;;;;;;;;;;;25.90;68.31;101004.63;2052163;28;20025;-74
2022/09/05 00:38:56;;;;;;;;;;;;;;;25.90;67.74;100996.50;2046826;29;20017;-74
2022/09/05 00:40:21;;;;;;;;;;;;;;;25.89;68.05;100996.56;2065858;28;19925;-73
2022/09/05 00:41:43;;;;;;;;;;;;;;;25.91;67.84;100989.28;2055171;28;19980;-74
2022/09/05 00:43:07;;;;;;;;;;;;;;;25.91;68.05;100998.28;2060910;28;19922;-75
2022/09/05 00:44:32;;;;;;;;;;;;;;;25.91;67.51;100987.44;2066993;28;20369;-75
2022/09/05 00:45:57;;;;;;;;;;;;;;;25.92;67.58;100999.16;2054424;28;20374;-74
2022/09/05 00:47:26;;;;;;;;;;;;;;;25.90;68.06;100987.50;2051355;28;19922;-74
2022/09/05 00:48:51;;;;;;;;;;;;;;;25.89;67.99;100992.03;2060010;28;20020;-74
2022/09/05 00:50:16;;;;;;;;;;;;;;;25.88;67.71;100998.41;2045805;29;19929;-74
2022/09/05 00:51:41;;;;;;;;;;;;;;;25.87;68.15;100988.50;2058326;28;19929;-74
2022/09/05 00:53:06;;;;;;;;;;;;;;;25.88;68.37;100995.69;2061058;28;20522;-75
2022/09/05 00:54:48;;;;;;;;;;;;;;;25.90;68.74;100992.91;2061178;28;19981;-74
2022/09/05 00:56:21;;;;;;;;;;;;;;;25.92;68.00;100997.34;2047703;28;19926;-74
2022/09/05 00:57:50;;;;;;;;;;;;;;;25.93;68.06;100998.22;2053876;28;19922;-74
2022/09/05 00:59:29;;;;;;;;;;;;;;;25.92;68.11;100989.22;2059395;28;19922;-74
2022/09/05 01:00:53;;;;;;;;;;;;;;;25.90;68.14;100991.09;2055045;28;19965;-74
2022/09/05 01:02:22;;;;;;;;;;;;;;;25.90;68.45;100990.22;2061521;28;20024;-74
2022/09/05 01:03:50;;;;;;;;;;;;;;;25.89;68.37;100997.44;2053446;28;19937;-74
2022/09/05 01:05:21;;;;;;;;;;;;;;;25.90;68.42;100982.97;2060259;28;19973;-73
2022/09/05 01:06:50;;;;;;;;;;;;;;;25.92;68.45;100991.03;2063090;28;20023;-74
2022/09/05 01:08:19;;;;;;;;;;;;;;;25.91;68.84;100979.34;2059369;28;20366;-74
2022/09/05 01:09:47;;;;;;;;;;;;;;;25.92;68.69;100978.41;2053543;28;20551;-74
2022/09/05 01:11:11;;;;;;;;;;;;;;;25.93;68.32;100981.97;2059478;28;19925;-74
2022/09/05 01:12:47;;;;;;;;;;;;;;;25.92;68.48;100978.41;2069359;28;20076;-74
2022/09/05 01:14:14;;;;;;;;;;;;;;;25.91;68.52;100967.63;2062923;28;19933;-74
2022/09/05 01:15:41;;;;;;;;;;;;;;;25.90;68.91;100971.28;2061359;28;19984;-75
2022/09/05 01:17:15;;;;;;;;;;;;;;;25.90;68.86;100965.88;2060408;28;19979;-75
2022/09/05 01:18:47;;;;;;;;;;;;;;;25.89;69.11;100967.69;2063128;28;19922;-75
2022/09/05 01:20:27;;;;;;;;;;;;;;;25.90;69.04;100960.47;2055064;28;20368;-76
2022/09/05 01:21:54;;;;;;;;;;;;;;;25.90;68.84;100965.88;2033362;28;19927;-74
2022/09/05 01:23:28;;;;;;;;;;;;;;;25.90;69.09;100964.03;2053451;28;19926;-74
2022/09/05 01:24:54;;;;;;;;;;;;;;;25.89;68.74;100969.50;2062974;28;20289;-75
2022/09/05 01:26:31;;;;;;;;;;;;;;;25.88;68.74;100965.94;2054457;28;19922;-74
2022/09/05 01:27:57;;;;;;;;;;;;;;;25.87;68.88;100953.34;2063801;28;20317;-74
2022/09/05 01:29:24;;;;;;;;;;;;;;;25.88;69.18;100951.53;2054828;28;20478;-75
2022/09/05 01:30:48;;;;;;;;;;;;;;;25.88;68.97;100955.09;2063244;28;20405;-74
2022/09/05 01:32:17;;;;;;;;;;;;;;;25.89;68.81;100950.56;2055886;28;20041;-75
2022/09/05 01:33:44;;;;;;;;;;;;;;;25.87;69.35;100950.63;2053707;28;19926;-75
2022/09/05 01:35:19;;;;;;;;;;;;;;;25.87;68.91;100947.06;2061468;28;20445;-75
2022/09/05 01:36:54;;;;;;;;;;;;;;;25.86;69.41;100950.72;2056467;28;19922;-75
2022/09/05 01:38:18;;;;;;;;;;;;;;;25.88;68.86;100956.94;2048046;29;20245;-75
2022/09/05 01:39:48;;;;;;;;;;;;;;;25.89;69.32;100956.00;2058794;28;19968;-74
2022/09/05 01:41:20;;;;;;;;;;;;;;;25.88;68.80;100963.22;2062684;28;19992;-74
2022/09/05 01:42:48;;;;;;;;;;;;;;;25.89;69.29;100956.88;2062442;28;20352;-74
2022/09/05 01:44:13;;;;;;;;;;;;;;;25.89;68.93;100956.88;2055369;28;19922;-74
2022/09/05 01:45:45;;;;;;;;;;;;;;;25.90;69.13;100950.50;2062225;28;20019;-74
2022/09/05 01:47:15;;;;;;;;;;;;;;;25.91;68.99;100957.69;2054586;28;20605;-74
2022/09/05 01:48:42;;;;;;;;;;;;;;;25.92;68.95;100967.56;2046747;29;19977;-74
2022/09/05 01:50:10;;;;;;;;;;;;;;;25.93;69.27;100953.06;2060448;28;19922;-74
2022/09/05 01:51:33;;;;;;;;;;;;;;;25.93;69.37;100955.78;2058429;28;19945;-74
2022/09/05 01:53:08;;;;;;;;;;;;;;;25.96;69.33;100954.78;2062833;28;19969;-74
2022/09/05 01:54:36;;;;;;;;;;;;;;;25.99;68.73;100952.78;2063212;28;19932;-74
2022/09/05 01:56:11;;;;;;;;;;;;;;;26.01;68.50;100948.19;2062094;28;20020;-74
2022/09/05 01:57:37;;;;;;;;;;;;;;;26.05;68.70;100948.94;2062540;28;19926;-74
2022/09/05 01:59:05;;;;;;;;;;;;;;;26.07;68.33;100942.50;2054625;28;19972;-74
2022/09/05 02:00:35;;;;;;;;;;;;;;;26.08;68.77;100941.56;2056632;28;20020;-74
2022/09/05 02:02:12;;;;;;;;;;;;;;;26.07;68.47;100939.78;2061697;28;19929;-74
2022/09/05 02:03:37;;;;;;;;;;;;;;;26.07;68.56;100934.38;2064493;28;20278;-74
2022/09/05 02:05:14;;;;;;;;;;;;;;;26.10;68.84;100944.19;2062062;28;19960;-75
2022/09/05 02:06:42;;;;;;;;;;;;;;;26.10;69.21;100945.09;2055605;28;19972;-73
2022/09/05 02:08:24;;;;;;;;;;;;;;;26.10;68.79;100942.38;2059681;28;19921;-74
2022/09/05 02:09:58;;;;;;;;;;;;;;;26.11;68.77;100949.56;2043381;28;20045;-74
2022/09/05 02:11:37;;;;;;;;;;;;;;;26.10;68.82;100941.50;2063151;28;20017;-74
2022/09/05 02:13:05;;;;;;;;;;;;;;;26.07;69.24;100936.22;2056591;28;20016;-74
2022/09/05 02:14:31;;;;;;;;;;;;;;;26.04;68.99;100929.13;2056189;28;19922;-74
2022/09/05 02:15:59;;;;;;;;;;;;;;;26.02;69.26;100927.44;2058493;28;19928;-75
2022/09/05 02:17:32;;;;;;;;;;;;;;;25.98;69.64;100934.81;2064832;28;19929;-74
2022/09/05 02:18:56;;;;;;;;;;;;;;;25.96;69.02;100933.13;2056896;28;19968;-75
2022/09/05 02:20:21;;;;;;;;;;;;;;;25.95;69.06;100928.66;2060078;28;20361;-75
2022/09/05 02:21:47;;;;;;;;;;;;;;;25.93;69.61;100935.97;2061336;28;20012;-75
2022/09/05 02:23:14;;;;;;;;;;;;;;;25.92;69.05;100929.69;2064971;28;19964;-75
2022/09/05 02:24:36;;;;;;;;;;;;;;;25.90;68.99;100937.00;2065054;28;20041;-74
2022/09/05 02:26:03;;;;;;;;;;;;;;;25.91;69.34;100935.16;2061489;28;19985;-74
2022/09/05 02:27:29;;;;;;;;;;;;;;;25.90;69.53;100933.41;2063090;28;19996;-74
2022/09/05 02:28:54;;;;;;;;;;;;;;;25.89;69.30;100937.03;2062314;28;19922;-74
2022/09/05 02:30:18;;;;;;;;;;;;;;;25.87;68.87;100931.69;2062598;28;19926;-74
2022/09/05 02:31:44;;;;;;;;;;;;;;;25.85;69.47;100930.91;2061637;28;19948;-74
2022/09/05 02:33:12;;;;;;;;;;;;;;;25.85;68.83;100927.31;2061992;28;20012;-74
2022/09/05 02:34:39;;;;;;;;;;;;;;;25.84;69.00;100928.28;2053671;28;19929;-74
2022/09/05 02:36:07;;;;;;;;;;;;;;;25.85;69.27;100933.63;2053092;28;19949;-74
2022/09/05 02:37:35;;;;;;;;;;;;;;;25.90;68.56;100928.88;2054528;28;19926;-74
2022/09/05 02:39:00;;;;;;;;;;;;;;;25.92;68.81;100929.69;2054816;28;19933;-74
2022/09/05 02:40:24;;;;;;;;;;;;;;;25.94;68.54;100922.38;2061307;28;20393;-74
2022/09/05 02:41:53;;;;;;;;;;;;;;;25.95;68.46;100921.41;2054640;28;19921;-74
2022/09/05 02:43:20;;;;;;;;;;;;;;;25.95;68.51;100921.41;2055554;28;19968;-74
2022/09/05 02:44:49;;;;;;;;;;;;;;;25.94;68.20;100924.19;2054752;28;19933;-74
2022/09/05 02:46:17;;;;;;;;;;;;;;;25.90;68.48;100914.47;2062170;28;20497;-74
2022/09/05 02:47:45;;;;;;;;;;;;;;;25.87;68.46;100929.00;2063808;28;20413;-75
2022/09/05 02:49:10;;;;;;;;;;;;;;;25.84;68.95;100925.56;2059104;28;19960;-75
2022/09/05 02:50:35;;;;;;;;;;;;;;;25.82;69.01;100916.63;2048936;28;20017;-75
2022/09/05 02:52:01;;;;;;;;;;;;;;;25.79;68.94;100923.06;2059704;28;19933;-74
2022/09/05 02:53:25;;;;;;;;;;;;;;;25.76;69.00;100920.50;2066285;28;19925;-75
2022/09/05 02:54:49;;;;;;;;;;;;;;;25.75;68.77;100921.44;2061022;28;19922;-74
2022/09/05 02:56:28;;;;;;;;;;;;;;;25.77;68.72;100922.25;2062381;28;20389;-74
2022/09/05 02:57:54;;;;;;;;;;;;;;;25.79;69.03;100923.94;2056072;28;19977;-74
2022/09/05 02:59:25;;;;;;;;;;;;;;;25.82;68.82;100919.34;2055149;28;19922;-74
2022/09/05 03:00:52;;;;;;;;;;;;;;;25.83;68.68;100938.22;2055256;28;19922;-75
2022/09/05 03:02:19;;;;;;;;;;;;;;;25.83;68.42;100921.97;2060302;28;19932;-74
2022/09/05 03:03:49;;;;;;;;;;;;;;;25.84;68.07;100931.84;2054520;28;20037;-74
2022/09/05 03:05:13;;;;;;;;;;;;;;;25.86;68.13;100924.56;2061614;28;19926;-75
2022/09/05 03:06:42;;;;;;;;;;;;;;;25.86;68.57;100929.97;2053379;28;19922;-74
2022/09/05 03:08:24;;;;;;;;;;;;;;;25.89;68.29;100931.63;2060314;28;19980;-74
2022/09/05 03:09:59;;;;;;;;;;;;;;;25.89;68.41;100929.81;2063783;28;19969;-74
2022/09/05 03:11:36;;;;;;;;;;;;;;;25.88;67.95;100917.22;2055269;28;19922;-74
2022/09/05 03:13:19;;;;;;;;;;;;;;;25.87;68.06;100917.28;2055710;28;19929;-74
2022/09/05 03:15:06;;;;;;;;;;;;;;;25.84;68.50;100915.63;2064688;28;20013;-75
2022/09/05 03:16:43;;;;;;;;;;;;;;;25.81;68.29;100915.75;2056477;28;20013;-75
2022/09/05 03:18:23;;;;;;;;;;;;;;;25.80;68.57;100922.09;2063343;28;20297;-74
2022/09/05 03:20:15;;;;;;;;;;;;;;;25.77;68.40;100923.13;2048379;28;20379;-74
2022/09/05 03:21:55;;;;;;;;;;;;;;;25.78;68.89;100927.59;2015756;29;19966;-74
2022/09/05 03:23:35;;;;;;;;;;;;;;;25.82;68.72;100927.44;2024498;29;19973;-74
2022/09/05 03:25:15;;;;;;;;;;;;;;;25.83;68.21;100923.81;2061574;28;19956;-75
2022/09/05 03:26:57;;;;;;;;;;;;;;;25.81;68.60;100926.56;2063347;28;20117;-75
2022/09/05 03:28:34;;;;;;;;;;;;;;;25.78;68.82;100932.13;2055106;28;19930;-74
2022/09/05 03:30:07;;;;;;;;;;;;;;;25.77;68.95;100933.06;2063343;28;19984;-74
2022/09/05 03:31:39;;;;;;;;;;;;;;;25.75;68.94;100929.53;2056558;28;20016;-74
2022/09/05 03:33:18;;;;;;;;;;;;;;;25.75;68.85;100924.13;2062967;28;20001;-74
2022/09/05 03:34:52;;;;;;;;;;;;;;;25.75;68.52;100943.06;2056515;28;20513;-75
2022/09/05 03:36:35;;;;;;;;;;;;;;;25.73;68.86;100926.91;2056439;28;19926;-76
2022/09/05 03:38:26;;;;;;;;;;;;;;;25.71;68.95;100933.34;2063512;28;20023;-74
2022/09/05 03:40:08;;;;;;;;;;;;;;;25.71;68.90;100938.75;2039709;29;20026;-74
2022/09/05 03:41:38;;;;;;;;;;;;;;;25.71;68.76;100936.94;2031037;28;20025;-75
2022/09/05 03:43:12;;;;;;;;;;;;;;;25.67;68.88;100932.59;2061276;28;19945;-74
2022/09/05 03:44:43;;;;;;;;;;;;;;;25.69;68.79;100936.13;2054786;28;19922;-75
2022/09/05 03:46:22;;;;;;;;;;;;;;;25.67;68.55;100927.19;2053728;28;20603;-74
2022/09/05 03:47:55;;;;;;;;;;;;;;;25.67;68.41;100937.13;2056050;28;19925;-74
2022/09/05 03:49:24;;;;;;;;;;;;;;;25.65;68.38;100934.50;2061155;28;19950;-74
2022/09/05 03:50:53;;;;;;;;;;;;;;;25.62;68.94;100933.75;2064034;28;19922;-74
2022/09/05 03:52:25;;;;;;;;;;;;;;;25.61;68.89;100935.56;2046183;29;20430;-74
2022/09/05 03:54:03;;;;;;;;;;;;;;;25.60;68.68;100944.63;2066497;28;19925;-75
2022/09/05 03:55:32;;;;;;;;;;;;;;;25.59;68.88;100936.59;2064305;28;19922;-74
2022/09/05 03:57:06;;;;;;;;;;;;;;;25.60;68.38;100935.66;2061230;28;19928;-75
2022/09/05 03:58:36;;;;;;;;;;;;;;;25.59;68.36;100939.31;2062876;28;20313;-75
2022/09/05 04:00:09;;;;;;;;;;;;;;;25.60;68.72;100936.50;2054588;28;20037;-75
2022/09/05 04:01:35;;;;;;;;;;;;;;;25.60;68.30;100938.34;2062507;28;19921;-75
2022/09/05 04:03:02;;;;;;;;;;;;;;;25.61;68.34;100942.78;2056520;28;19929;-75
2022/09/05 04:04:28;;;;;;;;;;;;;;;25.62;68.56;100942.72;2046602;28;19923;-75
2022/09/05 04:05:52;;;;;;;;;;;;;;;25.62;68.38;100948.16;2058291;28;21611;-75
2022/09/05 04:07:19;;;;;;;;;;;;;;;25.62;68.55;100939.16;2061324;28;19928;-75
2022/09/05 04:08:42;;;;;;;;;;;;;;;25.64;68.19;100948.97;2060558;28;20360;-74
2022/09/05 04:10:07;;;;;;;;;;;;;;;25.65;68.35;100945.31;2053908;28;20361;-75
2022/09/05 04:11:34;;;;;;;;;;;;;;;25.68;68.57;100947.00;2059535;28;19929;-75
2022/09/05 04:12:58;;;;;;;;;;;;;;;25.68;68.13;100941.56;2061533;28;19922;-75
2022/09/05 04:14:24;;;;;;;;;;;;;;;25.70;68.11;100945.09;2061671;28;20433;-75
2022/09/05 04:15:47;;;;;;;;;;;;;;;25.70;68.33;100937.88;2061482;28;19930;-74
2022/09/05 04:17:12;;;;;;;;;;;;;;;25.73;68.44;100934.16;2053791;28;19922;-76
2022/09/05 04:18:36;;;;;;;;;;;;;;;25.74;67.77;100938.59;2053341;28;19928;-75
2022/09/05 04:20:02;;;;;;;;;;;;;;;25.75;68.09;100933.13;2059661;28;19922;-75
2022/09/05 04:21:27;;;;;;;;;;;;;;;25.78;68.23;100929.44;2053259;28;19922;-75
2022/09/05 04:23:12;;;;;;;;;;;;;;;25.80;67.63;100938.34;2051154;28;19976;-75
2022/09/05 04:24:38;;;;;;;;;;;;;;;25.83;67.71;100935.50;2049807;28;19922;-74
2022/09/05 04:26:06;;;;;;;;;;;;;;;25.83;68.14;100938.22;2053071;28;19987;-75
2022/09/05 04:27:32;;;;;;;;;;;;;;;25.84;68.03;100937.25;2045096;28;19922;-76
2022/09/05 04:29:01;;;;;;;;;;;;;;;25.86;67.86;100940.78;2058569;28;19928;-75
2022/09/05 04:30:31;;;;;;;;;;;;;;;25.89;67.85;100937.03;2053972;28;20444;-76
2022/09/05 04:31:56;;;;;;;;;;;;;;;25.91;67.96;100933.34;2052949;28;19961;-74
2022/09/05 04:33:21;;;;;;;;;;;;;;;25.96;68.12;100934.00;2054113;28;20016;-75
2022/09/05 04:34:55;;;;;;;;;;;;;;;26.00;67.70;100935.59;2054076;28;20017;-75
2022/09/05 04:36:20;;;;;;;;;;;;;;;26.05;68.02;100938.13;2053811;28;19922;-75
2022/09/05 04:37:48;;;;;;;;;;;;;;;26.13;67.74;100944.03;2061126;28;19929;-75
2022/09/05 04:39:24;;;;;;;;;;;;;;;26.22;67.34;100945.47;2062004;28;19925;-75
2022/09/05 04:40:52;;;;;;;;;;;;;;;26.35;67.32;100935.84;2054996;28;20413;-75
2022/09/05 04:42:17;;;;;;;;;;;;;;;26.43;67.36;100939.97;2068420;28;19921;-76
2022/09/05 04:43:44;;;;;;;;;;;;;;;26.45;66.76;100946.16;2059004;28;20413;-75
2022/09/05 04:45:11;;;;;;;;;;;;;;;26.54;67.08;100950.28;2061374;28;19922;-75
2022/09/05 04:46:39;;;;;;;;;;;;;;;26.65;66.73;100950.63;2052910;28;20295;-76
2022/09/05 04:48:01;;;;;;;;;;;;;;;26.77;66.64;100951.91;2059907;28;19929;-75
2022/09/05 04:49:26;;;;;;;;;;;;;;;26.91;66.95;100953.00;2053436;28;20017;-75
2022/09/05 04:51:04;;;;;;;;;;;;;;;27.02;66.88;100959.75;2059267;28;20586;-76
2022/09/05 04:52:38;;;;;;;;;;;;;;;27.12;66.67;100958.31;2056007;28;20016;-75
2022/09/05 04:54:12;;;;;;;;;;;;;;;27.22;66.28;100952.38;2062926;28;20202;-77
2022/09/05 04:55:38;;;;;;;;;;;;;;;27.37;65.98;100950.72;2055409;28;19968;-76
2022/09/05 04:57:03;;;;;;;;;;;;;;;27.51;65.89;100947.28;2053818;28;20342;-75
2022/09/05 04:58:27;;;;;;;;;;;;;;;27.64;65.65;100948.44;2051359;28;19926;-75
2022/09/05 04:59:52;;;;;;;;;;;;;;;27.79;65.76;100952.19;2056219;28;19922;-76
2022/09/05 05:01:18;;;;;;;;;;;;;;;27.89;65.15;100953.47;2056886;28;19953;-76
2022/09/05 05:02:42;;;;;;;;;;;;;;;27.93;65.17;100947.78;2062474;28;20328;-74
2022/09/05 05:04:05;;;;;;;;;;;;;;;28.00;64.98;100951.94;2054937;28;20550;-75
2022/09/05 05:05:30;;;;;;;;;;;;;;;28.09;65.18;100956.00;2054356;28;20437;-74
2022/09/05 05:06:59;;;;;;;;;;;;;;;28.18;64.42;100960.94;2061264;28;20309;-75
2022/09/05 05:08:24;;;;;;;;;;;;;;;28.30;64.74;100954.84;2063104;28;20049;-74
2022/09/05 05:09:48;;;;;;;;;;;;;;;28.38;63.92;100962.56;2062872;28;19922;-76
2022/09/05 05:11:13;;;;;;;;;;;;;;;28.47;64.16;100949.38;2061315;28;19937;-75
2022/09/05 05:12:53;;;;;;;;;;;;;;;28.60;63.66;100959.56;2061831;28;20409;-75
2022/09/05 05:14:18;;;;;;;;;;;;;;;28.71;62.77;100959.81;2057585;28;19929;-75
2022/09/05 05:15:45;;;;;;;;;;;;;;;28.75;62.87;100966.88;2052872;28;20456;-76
2022/09/05 05:17:13;;;;;;;;;;;;;;;28.80;62.79;100962.06;2061054;28;20066;-76
2022/09/05 05:18:39;;;;;;;;;;;;;;;28.88;62.77;100957.91;2054729;28;20385;-75
2022/09/05 05:20:07;;;;;;;;;;;;;;;28.91;62.63;100960.47;2061273;28;20756;-75
2022/09/05 05:21:31;;;;;;;;;;;;;;;28.90;62.59;100964.16;2060405;28;19933;-75
2022/09/05 05:22:57;;;;;;;;;;;;;;;28.97;62.47;100952.94;2054023;28;19925;-75
2022/09/05 05:24:22;;;;;;;;;;;;;;;28.93;62.13;100961.28;2069076;28;19922;-76
2022/09/05 05:25:46;;;;;;;;;;;;;;;28.98;61.93;100965.56;2056325;28;19922;-75
2022/09/05 05:27:11;;;;;;;;;;;;;;;29.00;61.39;100966.34;2054216;28;20301;-75
2022/09/05 05:28:42;;;;;;;;;;;;;;;29.09;60.89;100966.69;2068917;28;20053;-75
2022/09/05 05:30:06;;;;;;;;;;;;;;;29.25;61.20;100969.41;2054645;28;19933;-75
2022/09/05 05:31:29;;;;;;;;;;;;;;;29.38;60.39;100972.31;2058684;28;19922;-75
2022/09/05 05:32:52;;;;;;;;;;;;;;;29.54;60.43;100974.00;2059958;28;19921;-75
2022/09/05 05:34:17;;;;;;;;;;;;;;;29.73;59.99;100976.53;2069687;28;19930;-75
2022/09/05 05:35:40;;;;;;;;;;;;;;;29.89;59.57;100981.91;2065293;28;20012;-76
2022/09/05 05:37:06;;;;;;;;;;;;;;;30.03;58.76;100980.13;2060373;28;19972;-75
2022/09/05 05:38:32;;;;;;;;;;;;;;;30.07;58.65;100975.34;2052768;28;20026;-75
2022/09/05 05:39:59;;;;;;;;;;;;;;;30.15;58.47;100974.88;2061494;28;19929;-76
2022/09/05 05:41:25;;;;;;;;;;;;;;;30.25;57.63;100982.41;2054792;28;19922;-75
2022/09/05 05:42:46;;;;;;;;;;;;;;;30.38;58.06;100980.66;2059482;28;20004;-75
2022/09/05 05:44:15;;;;;;;;;;;;;;;30.51;56.86;100974.44;2053388;28;19926;-76
2022/09/05 05:45:36;;;;;;;;;;;;;;;30.60;57.40;100988.34;2061004;28;20417;-75
2022/09/05 05:47:00;;;;;;;;;;;;;;;30.67;56.41;100984.25;2061998;28;20618;-75
2022/09/05 05:48:28;;;;;;;;;;;;;;;30.75;56.60;100975.59;2060233;28;19925;-75
2022/09/05 05:49:59;;;;;;;;;;;;;;;30.76;55.71;100978.22;2057098;28;19925;-74
2022/09/05 05:51:34;;;;;;;;;;;;;;;30.72;55.19;100993.00;2061480;28;19930;-75
2022/09/05 05:53:13;;;;;;;;;;;;;;;30.73;55.57;100989.31;2065270;28;19929;-75
2022/09/05 05:54:44;;;;;;;;;;;;;;;30.80;55.83;100995.25;2058240;28;19997;-75
2022/09/05 05:56:16;;;;;;;;;;;;;;;30.88;55.17;100999.22;2062361;28;19929;-74
2022/09/05 05:57:49;;;;;;;;;;;;;;;30.99;55.10;101000.38;2048829;29;20061;-76
2022/09/05 05:59:24;;;;;;;;;;;;;;;30.88;55.01;100998.34;2062796;28;19926;-76
2022/09/05 06:01:05;;;;;;;;;;;;;;;30.56;55.30;100991.38;2062249;28;20385;-76
2022/09/05 06:02:48;;;;;;;;;;;;;;;30.27;55.70;100985.88;2065209;28;19968;-74
2022/09/05 06:04:28;;;;;;;;;;;;;;;30.32;56.08;100994.66;2063235;28;19921;-75
2022/09/05 06:06:06;;;;;;;;;;;;;;;30.58;55.08;100998.50;2059054;28;20008;-74
2022/09/05 06:07:30;;;;;;;;;;;;;;;30.89;55.14;101000.09;2058193;28;19929;-74
2022/09/05 06:09:11;;;;;;;;;;;;;;;31.15;53.95;100995.69;2053874;28;19922;-74
2022/09/05 06:11:00;;;;;;;;;;;;;;;31.32;54.32;100997.28;2063900;28;19928;-74
2022/09/05 06:12:40;;;;;;;;;;;;;;;31.33;54.55;100989.00;2063744;28;19957;-75
2022/09/05 06:14:20;;;;;;;;;;;;;;;31.47;53.74;101007.19;2064442;28;20003;-74
2022/09/05 06:16:02;;;;;;;;;;;;;;;31.45;53.70;100998.22;2064530;28;19921;-74
2022/09/05 06:17:30;;;;;;;;;;;;;;;31.40;53.74;101000.38;2058452;28;20408;-75
2022/09/05 06:19:11;;;;;;;;;;;;;;;31.22;54.07;101002.50;2053957;28;19922;-74
2022/09/05 06:20:57;;;;;;;;;;;;;;;31.00;54.14;101004.84;2047536;29;19926;-74
2022/09/05 06:22:46;;;;;;;;;;;;;;;30.77;54.35;101001.78;2032078;29;20026;-75
2022/09/05 06:24:24;;;;;;;;;;;;;;;30.53;55.09;101006.06;2055046;28;19929;-74
2022/09/05 06:26:19;;;;;;;;;;;;;;;30.42;55.13;101000.38;2062849;28;20539;-74
2022/09/05 06:27:58;;;;;;;;;;;;;;;30.29;55.63;100999.41;2039544;29;19926;-74
2022/09/05 06:29:27;;;;;;;;;;;;;;;30.21;55.50;100997.16;2033897;29;19923;-74
2022/09/05 06:30:56;;;;;;;;;;;;;;;30.47;55.28;101000.97;2054767;28;19922;-73
2022/09/05 06:32:27;;;;;;;;;;;;;;;30.61;54.52;101011.03;2042093;29;20037;-74
2022/09/05 06:33:55;;;;;;;;;;;;;;;30.60;54.57;101010.16;2056882;28;19972;-73
2022/09/05 06:35:26;;;;;;;;;;;;;;;30.54;54.77;100999.63;2054371;28;19922;-73
2022/09/05 06:36:54;;;;;;;;;;;;;;;30.67;54.96;101006.06;2055402;28;19922;-73
2022/09/05 06:38:37;;;;;;;;;;;;;;;30.96;54.19;101009.63;2055042;28;19960;-73
2022/09/05 06:40:05;;;;;;;;;;;;;;;31.03;54.08;101012.84;2072178;28;20048;-73
2022/09/05 06:41:34;;;;;;;;;;;;;;;31.03;53.85;101015.56;2064775;28;19921;-73
2022/09/05 06:43:07;;;;;;;;;;;;;;;31.17;53.65;101015.56;2052480;28;20368;-73
2022/09/05 06:44:39;;;;;;;;;;;;;;;31.35;53.84;101019.81;2063770;28;20024;-74
2022/09/05 06:46:31;;;;;;;;;;;;;;;31.55;53.54;101011.16;2061560;28;19961;-73
2022/09/05 06:47:58;;;;;;;;;;;;;;;31.72;53.06;101010.03;2040447;29;20453;-73
2022/09/05 06:49:24;;;;;;;;;;;;;;;31.80;52.82;101014.97;2044598;29;20437;-73
2022/09/05 06:50:59;;;;;;;;;;;;;;;31.87;52.98;101019.03;2058598;28;19931;-73
2022/09/05 06:52:35;;;;;;;;;;;;;;;31.97;52.70;101022.84;2053769;28;19926;-73
2022/09/05 06:54:03;;;;;;;;;;;;;;;31.87;52.64;101019.91;2063947;28;20341;-74
2022/09/05 06:55:36;;;;;;;;;;;;;;;31.81;52.90;101030.38;2056562;28;19922;-74
2022/09/05 06:57:04;;;;;;;;;;;;;;;31.87;52.88;101022.63;2047759;29;19922;-73
2022/09/05 06:58:41;;;;;;;;;;;;;;;31.83;52.93;101018.38;2060823;28;20012;-72
2022/09/05 07:00:17;;;;;;;;;;;;;;;31.89;52.72;101015.22;2061992;28;20012;-73
2022/09/05 07:01:43;;;;;;;;;;;;;;;31.87;52.51;101017.16;2056307;28;19972;-73
2022/09/05 07:03:21;;;;;;;;;;;;;;;31.80;52.83;101013.09;2062557;28;19929;-73
2022/09/05 07:04:48;;;;;;;;;;;;;;;31.78;53.31;101020.53;2068343;28;19921;-74
2022/09/05 07:06:12;;;;;;;;;;;;;;;31.78;53.14;101017.78;2064606;28;20402;-74
2022/09/05 07:07:36;;;;;;;;;;;;;;;31.96;52.98;101011.06;2062160;28;19922;-74
2022/09/05 07:09:02;;;;;;;;;;;;;;;32.09;52.43;101019.28;2053610;28;19961;-73
2022/09/05 07:10:27;;;;;;;;;;;;;;;32.23;52.12;101018.34;2054559;28;19922;-73
2022/09/05 07:11:56;;;;;;;;;;;;;;;32.33;51.82;101019.44;2062401;28;19929;-74
2022/09/05 07:13:21;;;;;;;;;;;;;;;32.36;52.29;101028.28;2062790;28;19921;-73
2022/09/05 07:14:50;;;;;;;;;;;;;;;32.53;51.97;101035.28;2054029;28;20024;-74
2022/09/05 07:16:17;;;;;;;;;;;;;;;32.73;51.47;101020.22;2053409;28;20294;-74
2022/09/05 07:17:45;;;;;;;;;;;;;;;32.78;51.25;101024.34;2060638;28;19997;-74
2022/09/05 07:19:23;;;;;;;;;;;;;;;32.74;51.70;101025.59;2054029;28;20354;-74
2022/09/05 07:20:49;;;;;;;;;;;;;;;32.65;51.74;101031.66;2046869;28;20003;-75
2022/09/05 07:22:14;;;;;;;;;;;;;;;32.40;51.18;101028.97;2051500;28;20414;-75
2022/09/05 07:23:46;;;;;;;;;;;;;;;32.17;52.06;101038.75;2057297;28;19926;-75
2022/09/05 07:25:09;;;;;;;;;;;;;;;32.19;52.28;101038.66;2061782;28;19922;-75
2022/09/05 07:26:33;;;;;;;;;;;;;;;32.37;51.87;101035.50;2060780;28;19933;-75
2022/09/05 07:27:58;;;;;;;;;;;;;;;32.48;51.32;101045.69;2055002;28;20386;-75
2022/09/05 07:29:21;;;;;;;;;;;;;;;32.69;51.04;101041.44;2058940;28;20362;-75
2022/09/05 07:30:48;;;;;;;;;;;;;;;32.94;50.45;101020.50;2053647;28;20226;-74
2022/09/05 07:32:15;;;;;;;;;;;;;;;33.01;49.80;101050.06;2060762;28;19922;-75
2022/09/05 07:33:38;;;;;;;;;;;;;;;32.93;49.49;101043.38;2061835;28;20425;-75
2022/09/05 07:35:04;;;;;;;;;;;;;;;32.95;50.01;101049.63;2045840;29;19938;-75
2022/09/05 07:36:33;;;;;;;;;;;;;;;33.01;50.00;101052.78;2044407;29;19930;-75
2022/09/05 07:38:04;;;;;;;;;;;;;;;33.14;49.50;101044.53;2052618;28;20424;-75
2022/09/05 07:39:29;;;;;;;;;;;;;;;33.25;48.94;101044.66;2062858;28;19922;-75
2022/09/05 07:40:54;;;;;;;;;;;;;;;33.30;48.68;101045.16;2053882;28;19922;-75
2022/09/05 07:42:19;;;;;;;;;;;;;;;33.41;48.99;101036.16;2059996;28;20333;-75